createdAt,value
2023-03-26T00:00:03.040Z,59.50
2023-03-26T00:05:08.017Z,59.51
2023-03-26T00:10:12.875Z,59.48
2023-03-26T00:14:57.900Z,59.56
2023-03-26T00:19:43.957Z,60.48
2023-03-26T00:24:38.775Z,60.06
2023-03-26T00:29:04.840Z,59.99
2023-03-26T00:33:28.855Z,59.88
2023-03-26T00:38:33.048Z,60.64
2023-03-26T00:42:59.045Z,60.89
2023-03-26T00:47:47.273Z,61.20
2023-03-26T00:52:53.302Z,61.05
2023-03-26T00:57:32.724Z,61.06
2023-03-26T01:02:00.442Z,61.30
2023-03-26T01:07:09.015Z,61.24
2023-03-26T01:12:17.013Z,61.01
2023-03-26T01:21:33.868Z,61.16
2023-03-26T01:26:18.541Z,61.71
2023-03-26T01:31:20.649Z,61.86
2023-03-26T01:36:45.945Z,62.00
2023-03-26T01:41:36.596Z,61.85
2023-03-26T01:46:20.396Z,62.01
2023-03-26T01:55:50.179Z,61.95
2023-03-26T02:01:06.208Z,62.00
2023-03-26T02:06:10.752Z,62.42
2023-03-26T02:11:16.020Z,62.64
2023-03-26T02:16:19.418Z,62.50
2023-03-26T02:20:51.752Z,62.71
2023-03-26T02:25:16.204Z,63.23
2023-03-26T02:29:40.247Z,62.99
2023-03-26T02:34:45.363Z,62.82
2023-03-26T02:39:49.181Z,63.05
2023-03-26T02:44:53.978Z,63.07
2023-03-26T02:49:59.373Z,63.44
2023-03-26T02:55:07.382Z,64.02
2023-03-26T02:59:52.033Z,64.16
2023-03-26T03:04:56.889Z,64.11
2023-03-26T03:09:41.012Z,64.27
2023-03-26T03:14:44.983Z,64.53
2023-03-26T03:19:33.453Z,64.70
2023-03-26T03:24:00.162Z,64.75
2023-03-26T03:28:25.580Z,64.67
2023-03-26T03:32:49.720Z,64.85
2023-03-26T03:37:18.573Z,65.16
2023-03-26T03:41:42.735Z,65.19
2023-03-26T03:46:27.311Z,65.23
2023-03-26T03:51:31.110Z,65.15
2023-03-26T03:56:17.250Z,66.36
2023-03-26T04:01:35.019Z,66.58
2023-03-26T04:06:38.973Z,66.20
2023-03-26T04:11:43.855Z,66.91
2023-03-26T04:16:12.342Z,66.83
2023-03-26T04:20:58.289Z,66.63
2023-03-26T04:25:43.698Z,66.83
2023-03-26T04:30:28.772Z,67.04
2023-03-26T04:35:47.102Z,67.40
2023-03-26T04:40:56.590Z,67.58
2023-03-26T04:46:11.039Z,67.46
2023-03-26T04:51:24.883Z,67.57
2023-03-26T04:56:40.931Z,67.94
2023-03-26T05:01:47.075Z,67.93
2023-03-26T05:06:31.883Z,68.44
2023-03-26T05:11:52.771Z,68.65
2023-03-26T05:16:53.126Z,68.60
2023-03-26T05:21:58.949Z,68.56
2023-03-26T05:26:43.080Z,68.34
2023-03-26T05:31:52.599Z,68.51
2023-03-26T05:36:59.547Z,68.58
2023-03-26T05:42:04.750Z,68.36
2023-03-26T05:46:51.008Z,68.12
2023-03-26T05:51:55.597Z,67.87
2023-03-26T05:56:44.392Z,67.81
2023-03-26T06:01:46.642Z,68.17
2023-03-26T06:06:33.119Z,68.00
2023-03-26T06:11:42.012Z,68.34
2023-03-26T06:16:46.914Z,67.87
2023-03-26T06:21:51.818Z,68.10
2023-03-26T06:26:36.024Z,68.01
2023-03-26T06:31:40.445Z,67.69
2023-03-26T06:36:46.450Z,67.33
2023-03-26T06:41:33.436Z,66.93
2023-03-26T06:46:44.070Z,67.13
2023-03-26T06:51:46.508Z,66.56
2023-03-26T06:56:59.665Z,65.99
2023-03-26T07:02:09.210Z,65.62
2023-03-26T07:07:12.866Z,64.94
2023-03-26T07:12:06.297Z,64.50
2023-03-26T07:16:56.642Z,64.01
2023-03-26T07:22:06.594Z,63.06
2023-03-26T07:27:12.988Z,61.87
2023-03-26T07:32:06.092Z,59.02
2023-03-26T07:36:53.535Z,56.82
2023-03-26T07:41:56.748Z,57.04
2023-03-26T07:46:41.566Z,55.19
2023-03-26T07:51:28.744Z,53.77
2023-03-26T07:56:46.088Z,52.77
2023-03-26T08:02:00.332Z,51.95
2023-03-26T08:06:32.579Z,51.87
2023-03-26T08:11:26.606Z,51.09
2023-03-26T08:16:33.579Z,51.06
2023-03-26T08:21:18.994Z,48.80
2023-03-26T08:26:15.646Z,48.83
2023-03-26T08:31:22.453Z,50.04
2023-03-26T08:35:47.617Z,49.23
2023-03-26T08:40:15.227Z,48.72
2023-03-26T08:44:46.751Z,46.30
2023-03-26T08:49:19.597Z,46.96
2023-03-26T08:54:23.136Z,47.32
2023-03-26T08:59:11.421Z,47.00
2023-03-26T09:04:20.255Z,47.49
2023-03-26T09:09:42.431Z,46.85
2023-03-26T09:14:55.729Z,44.87
2023-03-26T09:19:48.945Z,44.66
2023-03-26T09:24:15.800Z,42.75
2023-03-26T09:28:38.317Z,43.24
2023-03-26T09:33:43.966Z,42.27
2023-03-26T09:38:40.091Z,43.51
2023-03-26T09:43:22.691Z,42.46
2023-03-26T09:47:50.231Z,41.45
2023-03-26T09:52:33.061Z,39.11
2023-03-26T09:57:42.864Z,40.90
2023-03-26T10:03:01.219Z,41.39
2023-03-26T10:07:34.433Z,41.22
2023-03-26T10:12:20.027Z,40.91
2023-03-26T10:17:32.825Z,38.77
2023-03-26T10:22:22.327Z,40.20
2023-03-26T10:27:17.305Z,40.59
2023-03-26T10:32:22.797Z,40.71
2023-03-26T10:37:19.012Z,39.77
2023-03-26T10:41:58.729Z,40.16
2023-03-26T10:46:38.478Z,38.07
2023-03-26T10:51:34.915Z,39.21
2023-03-26T10:56:20.168Z,39.10
2023-03-26T11:01:15.539Z,39.60
2023-03-26T11:05:41.076Z,39.75
2023-03-26T11:10:55.875Z,40.61
2023-03-26T11:15:20.498Z,40.82
2023-03-26T11:20:02.683Z,41.26
2023-03-26T11:25:06.854Z,41.82
2023-03-26T11:29:58.795Z,42.38
2023-03-26T11:34:25.737Z,42.18
2023-03-26T11:39:27.929Z,42.24
2023-03-26T11:43:53.014Z,42.49
2023-03-26T11:48:19.567Z,42.67
2023-03-26T11:52:44.918Z,43.09
2023-03-26T11:57:08.415Z,43.43
2023-03-26T12:01:33.572Z,42.22
2023-03-26T12:06:04.746Z,41.62
2023-03-26T12:10:37.524Z,42.47
2023-03-26T12:15:02.554Z,42.30
2023-03-26T12:19:26.245Z,42.78
2023-03-26T12:23:49.224Z,42.84
2023-03-26T12:28:19.638Z,43.03
2023-03-26T12:32:55.407Z,42.87
2023-03-26T12:37:39.224Z,41.35
2023-03-26T12:44:46.164Z,41.56
2023-03-26T12:47:59.034Z,41.35
2023-03-26T12:52:02.766Z,41.31
2023-03-26T12:57:11.991Z,40.37
2023-03-26T13:02:02.549Z,40.44
2023-03-26T13:07:17.768Z,40.21
2023-03-26T13:12:05.997Z,39.36
2023-03-26T13:17:13.769Z,37.70
2023-03-26T13:21:53.794Z,37.95
2023-03-26T13:26:33.302Z,39.00
2023-03-26T13:31:18.472Z,39.41
2023-03-26T13:35:51.591Z,39.59
2023-03-26T13:40:43.655Z,39.04
2023-03-26T13:45:30.207Z,40.25
2023-03-26T13:50:26.309Z,40.02
2023-03-26T13:55:26.980Z,40.46
2023-03-26T14:00:46.000Z,41.18
2023-03-26T14:05:31.511Z,41.08
2023-03-26T14:10:35.345Z,41.39
2023-03-26T14:15:08.245Z,41.74
2023-03-26T14:20:11.929Z,41.62
2023-03-26T14:25:26.117Z,40.93
2023-03-26T14:30:19.414Z,41.46
2023-03-26T14:35:18.515Z,40.65
2023-03-26T14:40:08.301Z,40.97
2023-03-26T14:45:12.381Z,40.24
2023-03-26T14:49:42.290Z,40.94
2023-03-26T14:54:30.138Z,40.82
2023-03-26T14:59:25.902Z,40.32
2023-03-26T15:04:11.318Z,40.86
2023-03-26T15:08:53.950Z,41.22
2023-03-26T15:13:49.444Z,40.91
2023-03-26T15:19:08.412Z,40.71
2023-03-26T15:23:58.336Z,41.24
2023-03-26T15:28:27.874Z,41.70
2023-03-26T15:32:56.070Z,41.93
2023-03-26T15:37:17.581Z,41.74
2023-03-26T15:42:06.006Z,42.15
2023-03-26T15:46:34.259Z,42.52
2023-03-26T15:51:16.565Z,42.63
2023-03-26T15:55:46.398Z,43.10
2023-03-26T16:00:42.399Z,43.28
2023-03-26T16:05:29.477Z,43.69
2023-03-26T16:09:58.166Z,44.07
2023-03-26T16:14:23.594Z,44.35
2023-03-26T16:18:50.669Z,44.32
2023-03-26T16:23:35.048Z,44.69
2023-03-26T16:28:07.374Z,45.13
2023-03-26T16:33:06.381Z,45.19
2023-03-26T16:37:57.496Z,45.86
2023-03-26T16:43:21.615Z,45.90
2023-03-26T16:48:20.856Z,45.88
2023-03-26T16:52:49.217Z,46.21
2023-03-26T16:57:18.269Z,46.43
2023-03-26T17:01:41.838Z,46.58
2023-03-26T17:07:09.540Z,47.07
2023-03-26T17:12:01.405Z,47.54
2023-03-26T17:17:06.708Z,48.62
2023-03-26T17:21:54.518Z,49.96
2023-03-26T17:27:01.292Z,51.61
2023-03-26T17:32:20.723Z,51.13
2023-03-26T17:36:56.133Z,51.71
2023-03-26T17:41:38.500Z,51.59
2023-03-26T17:46:04.352Z,51.46
2023-03-26T17:50:29.104Z,51.35
2023-03-26T17:55:32.487Z,51.04
2023-03-26T18:00:36.574Z,51.16
2023-03-26T18:05:00.585Z,51.46
2023-03-26T18:10:08.321Z,51.56
2023-03-26T18:15:10.239Z,51.83
2023-03-26T18:19:58.077Z,52.70
2023-03-26T18:24:41.790Z,52.39
2023-03-26T18:29:30.033Z,53.10
2023-03-26T18:34:14.224Z,53.58
2023-03-26T18:38:59.323Z,53.36
2023-03-26T18:43:56.599Z,53.38
2023-03-26T18:49:03.672Z,53.63
2023-03-26T18:53:56.079Z,53.68
2023-03-26T18:59:08.850Z,54.06
2023-03-26T19:03:57.396Z,54.80
2023-03-26T19:08:41.469Z,54.62
2023-03-26T19:13:10.738Z,54.63
2023-03-26T19:17:43.432Z,55.03
2023-03-26T19:22:07.470Z,55.05
2023-03-26T19:26:43.484Z,55.07
2023-03-26T19:31:38.405Z,55.41
2023-03-26T19:36:05.823Z,56.16
2023-03-26T19:40:35.783Z,56.84
2023-03-26T19:45:06.334Z,56.96
2023-03-26T19:49:32.472Z,57.59
2023-03-26T19:54:12.648Z,57.58
2023-03-26T19:59:17.759Z,57.56
2023-03-26T20:03:42.884Z,57.76
2023-03-26T20:08:08.829Z,57.76
2023-03-26T20:12:35.400Z,57.85
2023-03-26T20:17:41.771Z,57.97
2023-03-26T20:22:07.398Z,58.64
2023-03-26T20:26:31.989Z,58.30
2023-03-26T20:30:56.260Z,58.64
2023-03-26T20:35:35.819Z,58.43
2023-03-26T20:40:13.583Z,58.91
2023-03-26T20:45:21.625Z,58.84
2023-03-26T20:49:45.305Z,59.48
2023-03-26T20:54:25.342Z,59.89
2023-03-26T20:58:54.735Z,60.07
2023-03-26T21:03:23.480Z,60.14
2023-03-26T21:08:09.916Z,60.65
2023-03-26T21:13:05.844Z,60.59
2023-03-26T21:18:16.028Z,61.37
2023-03-26T21:23:20.157Z,61.12
2023-03-26T21:28:02.866Z,60.39
2023-03-26T21:32:30.866Z,60.35
2023-03-26T21:37:17.842Z,59.93
2023-03-26T21:42:06.051Z,60.86
2023-03-26T21:46:41.546Z,61.92
2023-03-26T21:51:46.571Z,63.22
2023-03-26T21:56:39.437Z,63.64
2023-03-26T22:01:46.842Z,64.27
2023-03-26T22:06:39.386Z,64.99
2023-03-26T22:11:24.834Z,65.61
2023-03-26T22:15:59.323Z,66.32
2023-03-26T22:21:04.226Z,67.22
2023-03-26T22:25:48.679Z,67.15
2023-03-26T22:30:35.709Z,67.41
2023-03-26T22:35:51.248Z,67.91
2023-03-26T22:40:58.928Z,68.50
2023-03-26T22:46:05.880Z,68.55
2023-03-26T22:51:10.068Z,69.06
2023-03-26T22:56:20.793Z,69.32
2023-03-26T23:01:07.286Z,70.29
2023-03-26T23:06:14.376Z,70.05
2023-03-26T23:10:58.929Z,69.99
2023-03-26T23:15:23.000Z,70.55
2023-03-26T23:19:47.390Z,70.87
2023-03-26T23:24:33.326Z,70.66
2023-03-26T23:29:22.031Z,70.78
2023-03-26T23:34:25.945Z,71.30
2023-03-26T23:39:15.804Z,70.72
2023-03-26T23:43:55.878Z,70.96
2023-03-26T23:48:45.334Z,71.28
2023-03-26T23:53:37.100Z,71.92
2023-03-26T23:58:26.113Z,71.78
